Portada
METAR-TAF:

METAR-TAF

Aeroports :

Tarawa, Kiribati

latitud: 01-21N, longitud: 172-55E, altitud: 2 m

Observació

L'informe es va fer fa 1 hora i 24 minuts, a les 23:00 UTC
Vent 8 kt del Sud/Sud-Est
Temperatura 31°C
Humitat 66%
Pressió 1011 hPa
Visibilitat 10 km o més
Escasses núvols a una alçada de 2000 ft

METAR: NGTA 202300Z 15008KT 9999 FEW020 31/24 Q1011

Hora: 14:24 (00:24 UTC)

Pronòstic

L'informe es va fer fa 1 hora i 15 minuts, a les 23:09 UTC
Pronòstic vàlid del 21 a les 00 UTC al 21 a les 24 UTC
Vent 8 kt del Sud/Sud-Est
Visibilitat 10 km o més
Escasses núvols a una alçada de 2000 ft

TAF: NGTA 202309Z 2100/2124 15008KT 9999 FEW020

Observacions i pronòstics meteorològics de més de 4000 aeroports (METAR i TAF).

Les estacions disponibles són els punts grocs i vermells al mapa.

Posi el ratolí al punt desitjat per veure el nom de l'estació.

Feu clic per veure les observacions i els pronòstics meteorològics.

Per canviar el mapa: feu clic els botons verds amb una creu de color negre per apropar; al botó verd amb un guió per allunyar la imatge; o en les fletxes verdes per a mapes adjacents.


METAR-TAF: